Time;durP1;ratioP1;P1;durP2;ratioP2;P2;SDS_P1;SDS_P2;PMS_P1;PMS_P2;Temp;Humidity;BMP_temperature;BMP_pressure;BME280_temperature;BME280_humidity;BME280_pressure;Samples;Min_cycle;Max_cycle;Signal;HPM_P1;HPM_P2
2023/10/21 00:00:58;;;;;;;;;;;12.40;99.90;;;;;;5113795;27;19916;-70
2023/10/21 00:03:23;;;;;;;;;;;12.40;99.90;;;;;;5117526;27;19996;-70
2023/10/21 00:05:50;;;;;;;;;;;12.30;99.90;;;;;;5101903;28;20009;-70
2023/10/21 00:08:15;;;;;;;;;;;12.40;99.90;;;;;;5118724;27;19916;-70
2023/10/21 00:10:41;;;;;;;;;;;12.30;99.90;;;;;;5105498;27;19916;-70
2023/10/21 00:13:06;;;;;;;;;;;12.40;99.90;;;;;;5092074;28;19957;-70
2023/10/21 00:15:34;;;;;;;;;;;12.40;99.90;;;;;;5100317;28;19908;-70
2023/10/21 00:17:59;;;;;;;;;;;12.40;99.90;;;;;;5093546;27;19912;-70
2023/10/21 00:20:25;;;;;;;;;;;12.30;99.90;;;;;;5098102;28;20041;-70
2023/10/21 00:22:50;;;;;;;;;;;12.30;99.90;;;;;;5093687;28;19916;-70
2023/10/21 00:25:16;;;;;;;;;;;12.30;99.90;;;;;;5111752;28;20007;-70
2023/10/21 00:27:41;;;;;;;;;;;12.30;99.90;;;;;;5095237;27;19908;-70
2023/10/21 00:30:07;;;;;;;;;;;12.30;99.90;;;;;;5120774;27;20318;-70
2023/10/21 00:32:33;;;;;;;;;;;12.30;99.90;;;;;;5111420;27;19939;-70
2023/10/21 00:34:58;;;;;;;;;;;12.30;99.90;;;;;;5091098;27;20470;-70
2023/10/21 00:37:23;;;;;;;;;;;12.30;99.90;;;;;;5101769;27;19916;-70
2023/10/21 00:39:49;;;;;;;;;;;12.30;99.90;;;;;;5097397;28;19989;-70
2023/10/21 00:42:14;;;;;;;;;;;12.30;99.90;;;;;;5093517;28;20351;-70
2023/10/21 00:44:40;;;;;;;;;;;12.30;99.90;;;;;;5108463;28;19923;-70
2023/10/21 00:47:05;;;;;;;;;;;12.30;99.90;;;;;;5108536;27;19915;-70
2023/10/21 00:49:31;;;;;;;;;;;12.30;99.90;;;;;;5113986;27;19908;-70
2023/10/21 00:52:02;;;;;;;;;;;12.30;99.90;;;;;;5105819;28;19908;-70
2023/10/21 00:54:28;;;;;;;;;;;12.30;99.90;;;;;;5111362;27;19911;-70
2023/10/21 00:56:53;;;;;;;;;;;12.30;99.90;;;;;;5101897;28;20451;-70
2023/10/21 00:59:19;;;;;;;;;;;12.20;99.90;;;;;;5118168;27;19916;-70
2023/10/21 01:01:45;;;;;;;;;;;12.30;99.90;;;;;;5107511;27;20135;-70
2023/10/21 01:04:11;;;;;;;;;;;12.30;99.90;;;;;;5090974;28;19908;-70
2023/10/21 01:06:37;;;;;;;;;;;12.30;99.90;;;;;;5127621;27;20256;-70
2023/10/21 01:09:02;;;;;;;;;;;12.30;99.90;;;;;;5090845;28;19908;-70
2023/10/21 01:11:28;;;;;;;;;;;12.30;99.90;;;;;;5129942;27;19923;-70
2023/10/21 01:13:55;;;;;;;;;;;12.30;99.90;;;;;;5103495;27;19919;-70
2023/10/21 01:16:21;;;;;;;;;;;12.30;99.90;;;;;;5115456;27;19919;-70
2023/10/21 01:18:47;;;;;;;;;;;12.30;99.90;;;;;;5107996;27;19912;-70
2023/10/21 01:21:12;;;;;;;;;;;12.30;99.90;;;;;;5103512;28;19912;-70
2023/10/21 01:23:39;;;;;;;;;;;12.30;99.90;;;;;;5098021;28;19912;-70
2023/10/21 01:26:05;;;;;;;;;;;12.30;99.90;;;;;;5104830;27;20319;-70
2023/10/21 01:28:30;;;;;;;;;;;12.30;99.90;;;;;;5098267;28;20015;-70
2023/10/21 01:30:56;;;;;;;;;;;12.30;99.90;;;;;;5104516;27;19982;-70
2023/10/21 01:33:22;;;;;;;;;;;12.30;99.90;;;;;;5099135;28;19912;-70
2023/10/21 01:35:47;;;;;;;;;;;12.30;99.90;;;;;;5112943;27;20036;-70
2023/10/21 01:38:15;;;;;;;;;;;12.30;99.90;;;;;;5113723;27;19915;-70
2023/10/21 01:40:40;;;;;;;;;;;12.30;99.90;;;;;;5115788;27;20003;-70
2023/10/21 01:43:06;;;;;;;;;;;12.30;99.90;;;;;;5103462;28;19999;-70
2023/10/21 01:45:34;;;;;;;;;;;12.30;99.90;;;;;;5116855;27;19912;-70
2023/10/21 01:48:00;;;;;;;;;;;12.30;99.90;;;;;;5097788;28;19988;-70
2023/10/21 01:50:25;;;;;;;;;;;12.30;99.90;;;;;;5107376;27;20002;-70
2023/10/21 01:52:51;;;;;;;;;;;12.30;99.90;;;;;;5099234;28;19924;-70
2023/10/21 01:55:16;;;;;;;;;;;12.30;99.90;;;;;;5118770;27;19908;-70
2023/10/21 01:57:42;;;;;;;;;;;12.30;99.90;;;;;;5110965;27;20327;-70
2023/10/21 02:00:10;;;;;;;;;;;12.40;99.90;;;;;;5128824;27;20014;-70
2023/10/21 02:02:36;;;;;;;;;;;12.40;99.90;;;;;;5103007;27;19914;-70
2023/10/21 02:05:02;;;;;;;;;;;12.30;99.90;;;;;;5118785;27;19908;-70
2023/10/21 02:07:28;;;;;;;;;;;12.30;99.90;;;;;;5101109;28;20044;-70
2023/10/21 02:09:53;;;;;;;;;;;12.40;99.90;;;;;;5096490;28;19912;-70
2023/10/21 02:12:18;;;;;;;;;;;12.40;99.90;;;;;;5106021;28;19908;-70
2023/10/21 02:14:44;;;;;;;;;;;12.40;99.90;;;;;;5109515;27;19939;-70
2023/10/21 02:17:10;;;;;;;;;;;12.40;99.90;;;;;;5108031;28;20329;-70
2023/10/21 02:19:35;;;;;;;;;;;12.40;99.90;;;;;;5092436;28;19916;-70
2023/10/21 02:22:00;;;;;;;;;;;12.40;99.90;;;;;;5093034;28;19907;-70
2023/10/21 02:24:26;;;;;;;;;;;12.40;99.90;;;;;;5108989;28;20333;-70
2023/10/21 02:26:52;;;;;;;;;;;12.40;99.90;;;;;;5106772;27;19911;-70
2023/10/21 02:29:17;;;;;;;;;;;12.40;99.90;;;;;;5093377;28;19961;-70
2023/10/21 02:31:43;;;;;;;;;;;12.40;99.90;;;;;;5102361;28;19980;-70
2023/10/21 02:34:08;;;;;;;;;;;12.40;99.90;;;;;;5103495;27;20394;-70
2023/10/21 02:36:34;;;;;;;;;;;12.40;99.90;;;;;;5130093;27;19987;-70
2023/10/21 02:39:00;;;;;;;;;;;12.50;99.90;;;;;;5112063;27;20009;-70
2023/10/21 02:41:26;;;;;;;;;;;12.50;99.90;;;;;;5121142;27;20637;-70
2023/10/21 02:43:52;;;;;;;;;;;12.50;99.90;;;;;;5124359;27;19937;-70
2023/10/21 02:46:18;;;;;;;;;;;12.50;99.90;;;;;;5106600;27;20368;-70
2023/10/21 02:48:44;;;;;;;;;;;12.50;99.90;;;;;;5110631;27;19973;-70
2023/10/21 02:51:13;;;;;;;;;;;12.50;99.90;;;;;;5099576;28;19912;-70
2023/10/21 02:53:45;;;;;;;;;;;12.50;99.90;;;;;;5101936;28;20392;-70
2023/10/21 02:56:13;;;;;;;;;;;12.50;99.90;;;;;;5109082;28;19922;-70
2023/10/21 02:58:39;;;;;;;;;;;12.50;99.90;;;;;;5108725;27;19915;-70
2023/10/21 03:01:25;;;;;;;;;;;12.50;99.80;;;;;;5121319;27;19908;-70
2023/10/21 03:03:51;;;;;;;;;;;12.50;99.90;;;;;;5115655;27;20016;-70
2023/10/21 03:06:18;;;;;;;;;;;12.50;99.90;;;;;;5108647;28;19973;-70
2023/10/21 03:08:43;;;;;;;;;;;12.50;99.90;;;;;;5117973;27;19930;-70
2023/10/21 03:11:09;;;;;;;;;;;12.50;99.90;;;;;;5118363;27;20412;-70
2023/10/21 03:13:35;;;;;;;;;;;12.50;99.90;;;;;;5121236;27;20340;-70
2023/10/21 03:16:11;;;;;;;;;;;12.50;99.90;;;;;;5104208;27;19925;-70
2023/10/21 03:18:37;;;;;;;;;;;12.50;99.90;;;;;;5102929;27;19913;-70
2023/10/21 03:21:03;;;;;;;;;;;12.50;99.90;;;;;;5108487;28;19912;-70
2023/10/21 03:23:29;;;;;;;;;;;12.50;99.90;;;;;;5107296;28;19911;-70
2023/10/21 03:25:55;;;;;;;;;;;12.50;99.90;;;;;;5110849;28;19918;-70
2023/10/21 03:28:22;;;;;;;;;;;12.50;99.90;;;;;;5120088;27;19915;-70
2023/10/21 03:30:47;;;;;;;;;;;12.60;99.90;;;;;;5116561;27;19908;-70
2023/10/21 03:33:13;;;;;;;;;;;12.50;99.90;;;;;;5101527;28;20380;-70
2023/10/21 03:35:38;;;;;;;;;;;12.60;99.90;;;;;;5110314;27;19914;-70
2023/10/21 03:38:04;;;;;;;;;;;12.60;99.90;;;;;;5132958;27;20014;-70
2023/10/21 03:40:29;;;;;;;;;;;12.60;99.90;;;;;;5124692;27;20383;-70
2023/10/21 03:42:55;;;;;;;;;;;12.50;99.90;;;;;;5121369;27;19915;-70
2023/10/21 03:45:21;;;;;;;;;;;12.60;99.90;;;;;;5104741;28;19947;-70
2023/10/21 03:47:46;;;;;;;;;;;12.60;99.90;;;;;;5108474;28;19918;-70
2023/10/21 03:50:12;;;;;;;;;;;12.60;99.90;;;;;;5104130;27;19930;-70
2023/10/21 03:52:38;;;;;;;;;;;12.60;99.90;;;;;;5111213;27;19955;-70
2023/10/21 03:55:04;;;;;;;;;;;12.60;99.90;;;;;;5116045;27;19964;-70
2023/10/21 03:57:30;;;;;;;;;;;12.60;99.90;;;;;;5107291;27;19916;-70
2023/10/21 03:59:55;;;;;;;;;;;12.60;99.90;;;;;;5112941;27;19923;-70
2023/10/21 04:02:21;;;;;;;;;;;12.60;99.90;;;;;;5106259;27;20015;-70
2023/10/21 04:04:47;;;;;;;;;;;12.60;99.90;;;;;;5108289;28;19912;-70
2023/10/21 04:07:12;;;;;;;;;;;12.60;99.90;;;;;;5105214;27;19965;-70
2023/10/21 04:09:38;;;;;;;;;;;12.60;99.90;;;;;;5119920;27;19929;-70
2023/10/21 04:12:04;;;;;;;;;;;12.60;99.90;;;;;;5111895;28;19912;-70
2023/10/21 04:14:29;;;;;;;;;;;12.60;99.90;;;;;;5111900;27;20352;-70
2023/10/21 04:16:55;;;;;;;;;;;12.60;99.90;;;;;;5111504;27;19931;-70
2023/10/21 04:19:20;;;;;;;;;;;12.60;99.90;;;;;;5096898;28;19912;-70
2023/10/21 04:21:46;;;;;;;;;;;12.60;99.90;;;;;;5097996;28;19919;-70
2023/10/21 04:24:11;;;;;;;;;;;12.60;99.90;;;;;;5129008;27;19908;-70
2023/10/21 04:26:37;;;;;;;;;;;12.60;99.90;;;;;;5110267;28;19908;-70
2023/10/21 04:29:04;;;;;;;;;;;12.60;99.90;;;;;;5114741;27;19942;-70
2023/10/21 04:31:34;;;;;;;;;;;12.70;99.90;;;;;;5124675;27;19915;-70
2023/10/21 04:33:59;;;;;;;;;;;12.70;99.90;;;;;;5107787;27;19911;-70
2023/10/21 04:36:25;;;;;;;;;;;12.70;99.90;;;;;;5126929;27;19938;-70
2023/10/21 04:38:50;;;;;;;;;;;12.70;99.90;;;;;;5118415;27;19954;-70
2023/10/21 04:41:16;;;;;;;;;;;12.70;99.90;;;;;;5103870;28;19907;-70
2023/10/21 04:43:41;;;;;;;;;;;12.70;99.90;;;;;;5119406;27;19907;-70
2023/10/21 04:46:07;;;;;;;;;;;12.70;99.90;;;;;;5110696;28;20041;-70
2023/10/21 04:48:32;;;;;;;;;;;12.70;99.90;;;;;;5117302;27;19911;-70
2023/10/21 04:50:59;;;;;;;;;;;12.70;99.90;;;;;;5119673;27;20027;-70
2023/10/21 04:53:24;;;;;;;;;;;12.70;99.90;;;;;;5107492;27;19919;-70
2023/10/21 04:55:50;;;;;;;;;;;12.70;99.90;;;;;;5110891;27;19912;-70
2023/10/21 04:58:15;;;;;;;;;;;12.70;99.90;;;;;;5122733;27;20382;-70
2023/10/21 05:00:41;;;;;;;;;;;12.80;99.90;;;;;;5120881;27;20347;-70
2023/10/21 05:03:07;;;;;;;;;;;12.80;99.90;;;;;;5104413;28;19908;-70
2023/10/21 05:05:34;;;;;;;;;;;12.80;99.90;;;;;;5114451;28;19946;-70
2023/10/21 05:08:01;;;;;;;;;;;12.70;99.90;;;;;;5097698;28;19950;-70
2023/10/21 05:10:26;;;;;;;;;;;12.80;99.90;;;;;;5104662;28;19908;-70
2023/10/21 05:12:52;;;;;;;;;;;12.70;99.90;;;;;;5116438;27;20022;-70
2023/10/21 05:15:17;;;;;;;;;;;12.80;99.90;;;;;;5104027;28;19912;-70
2023/10/21 05:17:43;;;;;;;;;;;12.80;99.90;;;;;;5140056;27;20562;-70
2023/10/21 05:20:09;;;;;;;;;;;12.80;99.90;;;;;;5130211;27;19908;-70
2023/10/21 05:22:34;;;;;;;;;;;12.70;99.90;;;;;;5104377;27;20000;-70
2023/10/21 05:25:00;;;;;;;;;;;12.80;99.90;;;;;;5100103;28;19912;-70
2023/10/21 05:27:25;;;;;;;;;;;12.80;99.90;;;;;;5109157;27;19912;-70
2023/10/21 05:29:51;;;;;;;;;;;12.80;99.90;;;;;;5102135;28;19922;-70
2023/10/21 05:32:16;;;;;;;;;;;12.80;99.90;;;;;;5107271;28;19943;-70
2023/10/21 05:34:42;;;;;;;;;;;12.80;99.90;;;;;;5100497;28;19908;-70
2023/10/21 05:37:07;;;;;;;;;;;12.80;99.90;;;;;;5109012;28;19999;-70
2023/10/21 05:39:33;;;;;;;;;;;12.80;99.90;;;;;;5109015;28;20571;-70
2023/10/21 05:41:58;;;;;;;;;;;12.80;99.90;;;;;;5125468;27;19912;-70
2023/10/21 05:44:24;;;;;;;;;;;12.80;99.90;;;;;;5108874;28;20395;-70
2023/10/21 05:46:50;;;;;;;;;;;12.80;99.90;;;;;;5109409;28;19919;-70
2023/10/21 05:49:15;;;;;;;;;;;12.80;99.90;;;;;;5106974;28;20651;-70
2023/10/21 05:51:41;;;;;;;;;;;12.80;99.90;;;;;;5109254;28;19908;-70
2023/10/21 05:54:06;;;;;;;;;;;12.80;99.90;;;;;;5102001;28;19961;-70
2023/10/21 05:56:32;;;;;;;;;;;12.80;99.90;;;;;;5108287;28;19929;-70
2023/10/21 05:58:57;;;;;;;;;;;12.80;99.90;;;;;;5052668;27;1792751;-70
2023/10/21 06:01:23;;;;;;;;;;;12.80;99.90;;;;;;5117871;27;19912;-70
2023/10/21 06:03:48;;;;;;;;;;;12.80;99.90;;;;;;5110748;27;20008;-70
2023/10/21 06:06:14;;;;;;;;;;;12.80;99.90;;;;;;5108140;27;19912;-70
2023/10/21 06:08:39;;;;;;;;;;;12.80;99.90;;;;;;5108940;28;19907;-71
2023/10/21 06:11:05;;;;;;;;;;;12.80;99.90;;;;;;5101607;28;20218;-70
2023/10/21 06:13:30;;;;;;;;;;;12.80;99.90;;;;;;5117984;27;19912;-70
2023/10/21 06:15:56;;;;;;;;;;;12.80;99.90;;;;;;5109037;28;19915;-70
2023/10/21 06:18:21;;;;;;;;;;;12.70;99.90;;;;;;5094659;27;20280;-70
2023/10/21 06:20:50;;;;;;;;;;;12.80;99.90;;;;;;5131171;27;19908;-70
2023/10/21 06:23:16;;;;;;;;;;;12.70;99.90;;;;;;5107784;28;19924;-70
2023/10/21 06:25:42;;;;;;;;;;;12.70;99.90;;;;;;5107383;28;19953;-70
2023/10/21 06:28:07;;;;;;;;;;;12.80;99.90;;;;;;5109053;28;19908;-70
2023/10/21 06:30:36;;;;;;;;;;;12.70;99.90;;;;;;5107421;28;19918;-70
2023/10/21 06:33:03;;;;;;;;;;;12.70;99.90;;;;;;5093762;27;19907;-70
2023/10/21 06:35:28;;;;;;;;;;;12.70;99.90;;;;;;5106947;27;19934;-70
2023/10/21 06:37:54;;;;;;;;;;;12.70;99.90;;;;;;5115753;27;20454;-70
2023/10/21 06:40:20;;;;;;;;;;;12.70;99.90;;;;;;5108867;28;19914;-70
2023/10/21 06:42:45;;;;;;;;;;;12.70;99.90;;;;;;5118269;27;19997;-70
2023/10/21 06:45:11;;;;;;;;;;;12.70;99.90;;;;;;5127143;27;19912;-70
2023/10/21 06:47:36;;;;;;;;;;;12.70;99.90;;;;;;5111465;27;19955;-70
2023/10/21 06:50:03;;;;;;;;;;;12.70;99.90;;;;;;5088727;28;19912;-70
2023/10/21 06:52:29;;;;;;;;;;;12.70;99.90;;;;;;5095957;28;19912;-70
2023/10/21 06:54:55;;;;;;;;;;;12.70;99.90;;;;;;5109425;28;19912;-70
2023/10/21 06:57:20;;;;;;;;;;;12.70;99.90;;;;;;5111354;27;19959;-70
2023/10/21 06:59:46;;;;;;;;;;;12.70;99.90;;;;;;5131042;27;20333;-70
2023/10/21 07:02:12;;;;;;;;;;;12.80;99.90;;;;;;5111528;27;19912;-70
2023/10/21 07:04:37;;;;;;;;;;;12.70;99.90;;;;;;5108642;28;19911;-70
2023/10/21 07:07:03;;;;;;;;;;;12.80;99.90;;;;;;5123922;27;19912;-70
2023/10/21 07:09:30;;;;;;;;;;;12.70;99.90;;;;;;5116578;27;19911;-70
2023/10/21 07:11:55;;;;;;;;;;;12.70;99.90;;;;;;5114282;27;20504;-70
2023/10/21 07:14:21;;;;;;;;;;;12.80;99.90;;;;;;5108219;27;19915;-70
2023/10/21 07:16:46;;;;;;;;;;;12.80;99.90;;;;;;5094844;27;19957;-70
2023/10/21 07:19:12;;;;;;;;;;;12.80;99.90;;;;;;5110959;27;19951;-70
2023/10/21 07:21:37;;;;;;;;;;;12.80;99.90;;;;;;5096681;28;19914;-70
2023/10/21 07:24:03;;;;;;;;;;;12.80;99.90;;;;;;5109864;27;19911;-70
2023/10/21 07:26:29;;;;;;;;;;;12.90;99.90;;;;;;5121599;27;19981;-70
2023/10/21 07:28:54;;;;;;;;;;;12.90;99.90;;;;;;5107731;28;20003;-70
2023/10/21 07:31:20;;;;;;;;;;;12.90;99.90;;;;;;5110882;27;19957;-70
2023/10/21 07:33:45;;;;;;;;;;;12.90;99.90;;;;;;5095199;28;19912;-70
2023/10/21 07:36:11;;;;;;;;;;;13.00;99.90;;;;;;5103624;28;20281;-70
2023/10/21 07:38:36;;;;;;;;;;;13.00;99.90;;;;;;5104085;28;20002;-70
2023/10/21 07:41:09;;;;;;;;;;;13.00;99.90;;;;;;5116307;27;19952;-70
2023/10/21 07:43:35;;;;;;;;;;;13.10;99.90;;;;;;5100225;28;20626;-70
2023/10/21 07:46:01;;;;;;;;;;;13.10;99.90;;;;;;5110601;27;19942;-70
2023/10/21 07:48:27;;;;;;;;;;;13.10;99.90;;;;;;5105077;27;19919;-70
2023/10/21 07:50:53;;;;;;;;;;;13.10;99.90;;;;;;5106094;28;19911;-70
2023/10/21 07:53:19;;;;;;;;;;;13.20;99.90;;;;;;5096155;28;19912;-70
2023/10/21 07:55:45;;;;;;;;;;;13.30;99.90;;;;;;5095193;28;19938;-70
2023/10/21 07:58:10;;;;;;;;;;;13.30;99.90;;;;;;5098144;28;20345;-70
2023/10/21 08:00:36;;;;;;;;;;;13.30;99.90;;;;;;5115766;28;20309;-70
2023/10/21 08:03:01;;;;;;;;;;;13.30;99.90;;;;;;5109073;27;20368;-70
2023/10/21 08:05:28;;;;;;;;;;;13.30;99.90;;;;;;5101521;28;19970;-70
2023/10/21 08:07:54;;;;;;;;;;;13.30;99.90;;;;;;5108160;28;20533;-70
2023/10/21 08:10:19;;;;;;;;;;;13.30;99.90;;;;;;5106562;28;19922;-70
2023/10/21 08:12:45;;;;;;;;;;;13.30;99.90;;;;;;5107591;28;20564;-70
2023/10/21 08:15:10;;;;;;;;;;;13.30;99.90;;;;;;5110949;28;19911;-70
2023/10/21 08:17:36;;;;;;;;;;;13.30;99.90;;;;;;5111674;27;19923;-70
2023/10/21 08:20:02;;;;;;;;;;;13.40;99.90;;;;;;5114652;27;19964;-70
2023/10/21 08:22:27;;;;;;;;;;;13.40;99.90;;;;;;5103379;28;19919;-70
2023/10/21 08:24:53;;;;;;;;;;;13.40;99.90;;;;;;5117646;27;19919;-70
2023/10/21 08:27:19;;;;;;;;;;;13.40;99.90;;;;;;5099643;28;19912;-70
2023/10/21 08:29:45;;;;;;;;;;;13.40;99.90;;;;;;5102239;27;19912;-70
2023/10/21 08:32:10;;;;;;;;;;;13.40;99.90;;;;;;5103634;27;19912;-70
2023/10/21 08:34:36;;;;;;;;;;;13.50;99.90;;;;;;5103683;28;20528;-70
2023/10/21 08:37:03;;;;;;;;;;;13.50;99.90;;;;;;5109301;28;19966;-70
2023/10/21 08:39:28;;;;;;;;;;;13.50;99.90;;;;;;5111115;27;19923;-70
2023/10/21 08:41:54;;;;;;;;;;;13.50;99.90;;;;;;5101045;28;19908;-70
2023/10/21 08:44:20;;;;;;;;;;;13.50;99.90;;;;;;5110856;28;19908;-70
2023/10/21 08:46:46;;;;;;;;;;;13.50;99.90;;;;;;5104691;28;19911;-70
2023/10/21 08:49:12;;;;;;;;;;;13.50;99.90;;;;;;5100127;28;20540;-70
2023/10/21 08:51:37;;;;;;;;;;;13.60;99.90;;;;;;5112802;27;19943;-70
2023/10/21 08:54:03;;;;;;;;;;;13.50;99.90;;;;;;5111045;27;19912;-70
2023/10/21 08:56:32;;;;;;;;;;;13.60;99.90;;;;;;5123731;27;20048;-70
2023/10/21 08:58:59;;;;;;;;;;;13.60;99.90;;;;;;5092225;27;19920;-70
2023/10/21 09:01:24;;;;;;;;;;;13.60;99.90;;;;;;5101600;28;19919;-70
2023/10/21 09:03:50;;;;;;;;;;;13.60;99.90;;;;;;5100842;28;19913;-70
2023/10/21 09:06:18;;;;;;;;;;;13.60;99.90;;;;;;5109675;28;20003;-70
2023/10/21 09:08:45;;;;;;;;;;;13.60;99.90;;;;;;5116114;27;19908;-70
2023/10/21 09:11:11;;;;;;;;;;;13.60;99.90;;;;;;5118496;27;20364;-70
2023/10/21 09:13:38;;;;;;;;;;;13.60;99.90;;;;;;5095685;28;19908;-70
2023/10/21 09:16:17;;;;;;;;;;;13.70;99.90;;;;;;5109142;27;19912;-70
2023/10/21 09:18:59;;;;;;;;;;;13.70;99.90;;;;;;5092606;27;19919;-69
2023/10/21 09:21:38;;;;;;;;;;;13.70;99.90;;;;;;5107047;27;19912;-69
2023/10/21 09:24:09;;;;;;;;;;;13.70;99.90;;;;;;5109811;27;19911;-70
2023/10/21 09:26:35;;;;;;;;;;;13.70;99.90;;;;;;5108044;27;19908;-70
2023/10/21 09:29:05;;;;;;;;;;;13.70;99.90;;;;;;5106124;27;20389;-70
2023/10/21 09:31:51;;;;;;;;;;;13.80;99.90;;;;;;5105464;27;19923;-70
2023/10/21 09:34:27;;;;;;;;;;;13.80;99.90;;;;;;5114770;27;20010;-70
2023/10/21 09:37:03;;;;;;;;;;;13.80;99.90;;;;;;5109230;27;19912;-70
2023/10/21 09:39:32;;;;;;;;;;;13.80;99.90;;;;;;5097393;28;19912;-70
2023/10/21 09:42:01;;;;;;;;;;;13.80;99.90;;;;;;5090843;28;19919;-70
2023/10/21 09:44:27;;;;;;;;;;;13.80;99.90;;;;;;5115481;27;20036;-70
2023/10/21 09:46:54;;;;;;;;;;;13.80;99.90;;;;;;5103086;27;19912;-70
2023/10/21 09:49:21;;;;;;;;;;;13.80;99.90;;;;;;5101499;28;20010;-70
2023/10/21 09:51:47;;;;;;;;;;;13.80;99.90;;;;;;5108569;27;20556;-70
2023/10/21 09:54:14;;;;;;;;;;;13.80;99.90;;;;;;5114126;27;19911;-70
2023/10/21 09:56:41;;;;;;;;;;;13.80;99.90;;;;;;5113712;27;19946;-70
2023/10/21 09:59:07;;;;;;;;;;;13.80;99.90;;;;;;5109231;27;20003;-70
2023/10/21 10:01:36;;;;;;;;;;;13.90;99.90;;;;;;5098069;28;19909;-70
2023/10/21 10:04:04;;;;;;;;;;;13.90;99.90;;;;;;5107873;27;19973;-70
2023/10/21 10:06:31;;;;;;;;;;;13.90;99.90;;;;;;5094457;28;20357;-70
2023/10/21 10:08:56;;;;;;;;;;;13.90;99.90;;;;;;5104496;27;19911;-70
2023/10/21 10:11:24;;;;;;;;;;;13.90;99.90;;;;;;5097882;28;19915;-70
2023/10/21 10:13:50;;;;;;;;;;;13.90;99.90;;;;;;5105463;28;19915;-70
2023/10/21 10:16:20;;;;;;;;;;;13.90;99.90;;;;;;5113459;27;19916;-70
2023/10/21 10:18:46;;;;;;;;;;;13.90;99.90;;;;;;5105102;27;19922;-70
2023/10/21 10:21:13;;;;;;;;;;;13.90;99.90;;;;;;5116948;27;19908;-70
2023/10/21 10:23:39;;;;;;;;;;;13.90;99.90;;;;;;5109466;28;19908;-70
2023/10/21 10:26:04;;;;;;;;;;;13.90;99.90;;;;;;5109387;27;19969;-70
2023/10/21 10:28:31;;;;;;;;;;;13.90;99.90;;;;;;5102395;28;20315;-70
2023/10/21 10:30:56;;;;;;;;;;;13.90;99.90;;;;;;5106696;27;19954;-70
2023/10/21 10:33:28;;;;;;;;;;;13.90;99.90;;;;;;5103247;28;20604;-70
2023/10/21 10:35:54;;;;;;;;;;;13.90;99.90;;;;;;5108772;28;19912;-70
2023/10/21 10:38:25;;;;;;;;;;;13.90;99.90;;;;;;5103495;28;19955;-70
2023/10/21 10:41:09;;;;;;;;;;;14.00;99.90;;;;;;5105109;28;19934;-70
2023/10/21 10:44:02;;;;;;;;;;;14.00;99.90;;;;;;5103443;28;19911;-70
2023/10/21 10:46:28;;;;;;;;;;;14.00;99.90;;;;;;5107326;28;19912;-70
2023/10/21 10:48:54;;;;;;;;;;;14.00;99.90;;;;;;5106794;27;19990;-70
2023/10/21 10:51:23;;;;;;;;;;;14.00;99.80;;;;;;5103391;28;20098;-70
2023/10/21 10:53:58;;;;;;;;;;;14.10;99.80;;;;;;5111521;27;19912;-70
2023/10/21 10:56:25;;;;;;;;;;;14.10;99.80;;;;;;5110872;27;20287;-70
2023/10/21 10:58:51;;;;;;;;;;;14.10;99.80;;;;;;5106149;28;19919;-70
2023/10/21 11:01:25;;;;;;;;;;;14.10;99.70;;;;;;5094535;28;20515;-70
2023/10/21 11:03:55;;;;;;;;;;;14.10;99.80;;;;;;5104665;28;19912;-70
2023/10/21 11:06:21;;;;;;;;;;;14.10;99.90;;;;;;5101651;28;19919;-70
2023/10/21 11:08:47;;;;;;;;;;;14.10;99.80;;;;;;5107390;28;20400;-70
2023/10/21 11:11:12;;;;;;;;;;;14.20;99.60;;;;;;5103016;27;19925;-70
2023/10/21 11:13:38;;;;;;;;;;;14.20;99.60;;;;;;5104706;27;19912;-70
2023/10/21 11:16:07;;;;;;;;;;;14.20;99.50;;;;;;5104598;28;19924;-70
2023/10/21 11:18:32;;;;;;;;;;;14.30;99.40;;;;;;5087560;28;20463;-70
2023/10/21 11:20:58;;;;;;;;;;;14.30;99.80;;;;;;5089778;28;19951;-70
2023/10/21 11:23:24;;;;;;;;;;;14.40;99.40;;;;;;5106638;28;20049;-70
2023/10/21 11:25:50;;;;;;;;;;;14.40;99.30;;;;;;5106851;28;19916;-70
2023/10/21 11:28:16;;;;;;;;;;;14.50;99.30;;;;;;5096609;28;19951;-70
2023/10/21 11:30:43;;;;;;;;;;;14.50;99.30;;;;;;5112091;27;20379;-70
2023/10/21 11:33:12;;;;;;;;;;;14.60;99.30;;;;;;5095705;28;19912;-70
2023/10/21 11:35:39;;;;;;;;;;;14.70;99.20;;;;;;5095846;28;20495;-70
2023/10/21 11:38:05;;;;;;;;;;;14.70;99.00;;;;;;5097118;28;19947;-70
2023/10/21 11:40:32;;;;;;;;;;;14.70;99.00;;;;;;5107599;28;19918;-70
2023/10/21 11:43:01;;;;;;;;;;;14.70;99.10;;;;;;5105635;28;20724;-70
2023/10/21 11:45:30;;;;;;;;;;;14.80;99.20;;;;;;5101776;28;20224;-70
2023/10/21 11:48:01;;;;;;;;;;;14.80;99.20;;;;;;5097073;28;19920;-70
2023/10/21 11:50:34;;;;;;;;;;;14.80;99.30;;;;;;5120092;28;20653;-70
2023/10/21 11:53:05;;;;;;;;;;;14.90;99.20;;;;;;5098763;27;19915;-70
2023/10/21 11:55:57;;;;;;;;;;;15.00;99.00;;;;;;5104701;27;19919;-70
2023/10/21 12:07:20;;;;;;;;;;;15.10;98.80;;;;;;5103233;28;19939;-69
2023/10/21 12:34:20;;;;;;;;;;;15.40;99.00;;;;;;5111031;27;19920;-70
2023/10/21 12:39:37;;;;;;;;;;;15.30;99.10;;;;;;5113793;27;19926;-70
2023/10/21 12:42:18;;;;;;;;;;;15.30;99.10;;;;;;5111079;28;20002;-70
2023/10/21 12:44:51;;;;;;;;;;;15.40;99.00;;;;;;5101545;28;19997;-70
2023/10/21 12:47:17;;;;;;;;;;;15.40;99.50;;;;;;5094686;28;19962;-70
2023/10/21 12:49:43;;;;;;;;;;;15.40;99.00;;;;;;5093015;28;20027;-70
2023/10/21 12:52:11;;;;;;;;;;;15.40;99.20;;;;;;5126382;27;19995;-70
2023/10/21 12:54:36;;;;;;;;;;;15.40;98.90;;;;;;5104102;28;19916;-70
2023/10/21 12:57:02;;;;;;;;;;;15.40;98.50;;;;;;5107985;28;19931;-70
2023/10/21 12:59:28;;;;;;;;;;;15.40;98.40;;;;;;5099016;28;20618;-70
2023/10/21 13:01:54;;;;;;;;;;;15.40;98.70;;;;;;5101713;27;19950;-70
2023/10/21 13:04:20;;;;;;;;;;;15.40;99.00;;;;;;5106278;28;19915;-70
2023/10/21 13:06:46;;;;;;;;;;;15.40;98.80;;;;;;5097656;27;19915;-70
2023/10/21 13:09:21;;;;;;;;;;;15.40;99.10;;;;;;5118646;27;20471;-70
2023/10/21 13:11:49;;;;;;;;;;;15.40;99.20;;;;;;5111283;28;19919;-70
2023/10/21 13:14:16;;;;;;;;;;;15.40;99.10;;;;;;5102617;27;20348;-70
2023/10/21 13:16:41;;;;;;;;;;;15.40;99.10;;;;;;5110175;28;19912;-70
2023/10/21 13:19:07;;;;;;;;;;;15.50;99.20;;;;;;5098531;27;19969;-70
2023/10/21 13:21:32;;;;;;;;;;;15.50;99.00;;;;;;5104779;27;20016;-70
2023/10/21 13:23:58;;;;;;;;;;;15.50;99.00;;;;;;5092639;28;19912;-70
2023/10/21 13:26:23;;;;;;;;;;;15.50;98.40;;;;;;5096118;28;19920;-70
2023/10/21 13:28:49;;;;;;;;;;;15.50;98.50;;;;;;5112875;27;19912;-70
2023/10/21 13:31:15;;;;;;;;;;;15.50;98.50;;;;;;5110169;27;19919;-70
2023/10/21 13:33:41;;;;;;;;;;;15.60;98.80;;;;;;5125584;27;19970;-70
2023/10/21 13:36:06;;;;;;;;;;;15.60;98.60;;;;;;5115163;27;20392;-70
2023/10/21 13:38:32;;;;;;;;;;;15.60;98.80;;;;;;5096823;28;19912;-70
2023/10/21 13:40:57;;;;;;;;;;;15.60;98.50;;;;;;5088711;27;20631;-70
2023/10/21 13:43:25;;;;;;;;;;;15.60;98.90;;;;;;5088940;28;19912;-70
2023/10/21 13:45:50;;;;;;;;;;;15.60;98.70;;;;;;5121197;27;19965;-70
2023/10/21 13:48:16;;;;;;;;;;;15.60;98.50;;;;;;5096818;28;19916;-70
2023/10/21 13:50:41;;;;;;;;;;;15.60;98.80;;;;;;5097140;28;20053;-70
2023/10/21 13:53:14;;;;;;;;;;;15.50;97.80;;;;;;5108345;28;19949;-71
2023/10/21 13:55:44;;;;;;;;;;;15.60;98.40;;;;;;5099663;28;19916;-71
2023/10/21 13:58:10;;;;;;;;;;;15.50;98.60;;;;;;5097586;28;19935;-70
2023/10/21 14:00:35;;;;;;;;;;;15.60;98.60;;;;;;5103112;27;20233;-70
2023/10/21 14:03:08;;;;;;;;;;;15.60;98.80;;;;;;5105388;28;19916;-70
2023/10/21 14:05:34;;;;;;;;;;;15.60;98.30;;;;;;5100620;27;19965;-70
2023/10/21 14:08:00;;;;;;;;;;;15.60;98.20;;;;;;5100195;28;19912;-70
2023/10/21 14:10:25;;;;;;;;;;;15.60;98.50;;;;;;5106159;27;19922;-70
2023/10/21 14:12:51;;;;;;;;;;;15.60;98.40;;;;;;5112979;27;20527;-70
2023/10/21 14:15:17;;;;;;;;;;;15.60;98.40;;;;;;5099874;28;19916;-70
2023/10/21 14:17:44;;;;;;;;;;;15.60;98.50;;;;;;5102392;27;19919;-70
2023/10/21 14:20:13;;;;;;;;;;;15.50;98.60;;;;;;5104519;28;19915;-70
2023/10/21 14:22:39;;;;;;;;;;;15.60;98.40;;;;;;5096732;28;19912;-70
2023/10/21 14:25:05;;;;;;;;;;;15.60;98.50;;;;;;5098802;28;19961;-70
2023/10/21 14:27:31;;;;;;;;;;;15.60;98.20;;;;;;5108119;28;20346;-70
2023/10/21 14:30:08;;;;;;;;;;;15.60;97.80;;;;;;5099389;27;20050;-70
2023/10/21 14:32:34;;;;;;;;;;;15.60;98.40;;;;;;5103710;28;19998;-70
2023/10/21 14:35:00;;;;;;;;;;;15.60;97.90;;;;;;5099794;28;20610;-70
2023/10/21 14:37:25;;;;;;;;;;;15.60;98.10;;;;;;5108228;28;19911;-70
2023/10/21 14:39:51;;;;;;;;;;;15.50;98.20;;;;;;5090462;28;19939;-70
2023/10/21 14:42:17;;;;;;;;;;;15.60;98.00;;;;;;5096458;28;20474;-70
2023/10/21 14:44:44;;;;;;;;;;;15.50;98.10;;;;;;5088483;28;19912;-70
2023/10/21 14:47:10;;;;;;;;;;;15.50;97.70;;;;;;5099557;28;19908;-70
2023/10/21 14:49:36;;;;;;;;;;;15.50;97.80;;;;;;5115536;27;20417;-70